createdAt,value
2022-10-18T00:00:34.236Z,15.21
2022-10-18T00:01:34.314Z,15.21
2022-10-18T00:02:34.383Z,15.21
2022-10-18T00:03:34.264Z,15.21
2022-10-18T00:04:34.184Z,15.21
2022-10-18T00:05:34.303Z,15.23
2022-10-18T00:06:34.188Z,15.21
2022-10-18T00:07:34.219Z,15.21
2022-10-18T00:08:34.146Z,15.21
2022-10-18T00:09:34.195Z,15.21
2022-10-18T00:10:34.112Z,15.21
2022-10-18T00:11:34.133Z,15.21
2022-10-18T00:12:34.132Z,15.23
2022-10-18T00:13:34.086Z,15.21
2022-10-18T00:14:34.053Z,15.21
2022-10-18T00:15:34.074Z,15.21
2022-10-18T00:16:34.043Z,15.20
2022-10-18T00:17:34.155Z,15.20
2022-10-18T00:18:34.044Z,15.20
2022-10-18T00:19:34.031Z,15.21
2022-10-18T00:20:34.024Z,15.21
2022-10-18T00:21:34.091Z,15.23
2022-10-18T00:22:34.068Z,15.23
2022-10-18T00:23:33.975Z,15.25
2022-10-18T00:24:34.015Z,15.25
2022-10-18T00:25:33.963Z,15.25
2022-10-18T00:26:33.934Z,15.25
2022-10-18T00:27:33.937Z,15.27
2022-10-18T00:28:33.976Z,15.28
2022-10-18T00:29:33.905Z,15.27
2022-10-18T00:30:33.894Z,15.27
2022-10-18T00:31:33.974Z,15.27
2022-10-18T00:32:34.153Z,15.27
2022-10-18T00:33:33.870Z,15.29
2022-10-18T00:34:33.846Z,15.29
2022-10-18T00:35:33.876Z,15.32
2022-10-18T00:36:33.824Z,15.35
2022-10-18T00:37:33.814Z,15.35
2022-10-18T00:38:33.843Z,15.36
2022-10-18T00:39:33.829Z,15.38
2022-10-18T00:40:34.686Z,15.39
2022-10-18T00:41:35.584Z,15.43
2022-10-18T00:42:34.099Z,15.43
2022-10-18T00:43:33.762Z,15.43
2022-10-18T00:44:33.755Z,15.43
2022-10-18T00:45:33.817Z,15.43
2022-10-18T00:46:33.715Z,15.43
2022-10-18T00:47:33.724Z,15.41
2022-10-18T00:48:33.684Z,15.39
2022-10-18T00:49:33.698Z,15.38
2022-10-18T00:50:33.674Z,15.38
2022-10-18T00:51:33.674Z,15.36
2022-10-18T00:52:34.025Z,15.36
2022-10-18T00:53:33.666Z,15.36
2022-10-18T00:54:33.605Z,15.36
2022-10-18T00:55:33.690Z,15.34
2022-10-18T00:56:33.609Z,15.34
2022-10-18T00:57:33.614Z,15.35
2022-10-18T00:58:33.588Z,15.35
2022-10-18T00:59:33.638Z,15.35
2022-10-18T01:00:33.570Z,15.35
2022-10-18T01:01:34.506Z,15.34
2022-10-18T01:02:34.413Z,15.34
2022-10-18T01:03:33.741Z,15.34
2022-10-18T01:04:33.519Z,15.34
2022-10-18T01:05:33.519Z,15.34
2022-10-18T01:06:33.475Z,15.32
2022-10-18T01:07:33.921Z,15.32
2022-10-18T01:08:33.482Z,15.29
2022-10-18T01:09:33.468Z,15.28
2022-10-18T01:10:33.437Z,15.25
2022-10-18T01:11:33.454Z,15.23
2022-10-18T01:12:33.425Z,15.23
2022-10-18T01:13:33.415Z,15.23
2022-10-18T01:14:33.420Z,15.23
2022-10-18T01:15:33.398Z,15.20
2022-10-18T01:16:33.357Z,15.19
2022-10-18T01:17:33.533Z,15.19
2022-10-18T01:18:33.337Z,15.19
2022-10-18T01:19:33.837Z,15.17
2022-10-18T01:20:33.340Z,15.16
2022-10-18T01:21:33.398Z,15.16
2022-10-18T01:22:33.315Z,15.16
2022-10-18T01:23:33.318Z,15.16
2022-10-18T01:24:33.576Z,15.16
2022-10-18T01:25:33.301Z,15.14
2022-10-18T01:26:33.258Z,15.14
2022-10-18T01:27:33.547Z,15.13
2022-10-18T01:28:33.359Z,15.11
2022-10-18T01:29:33.237Z,15.11
2022-10-18T01:30:33.210Z,15.10
2022-10-18T01:31:33.224Z,15.09
2022-10-18T01:32:33.188Z,15.09
2022-10-18T01:33:33.197Z,15.07
2022-10-18T01:34:33.166Z,15.06
2022-10-18T01:35:33.264Z,15.06
2022-10-18T01:36:34.157Z,15.02
2022-10-18T01:37:33.484Z,15.02
2022-10-18T01:38:33.208Z,15.03
2022-10-18T01:39:33.114Z,15.02
2022-10-18T01:40:33.101Z,15.03
2022-10-18T01:41:33.927Z,15.02
2022-10-18T01:42:33.136Z,15.02
2022-10-18T01:43:33.299Z,15.02
2022-10-18T01:44:33.912Z,15.01
2022-10-18T01:45:33.057Z,15.02
2022-10-18T01:46:33.026Z,15.01
2022-10-18T01:47:33.437Z,15.02
2022-10-18T01:48:33.016Z,15.02
2022-10-18T01:49:33.006Z,15.02
2022-10-18T01:50:32.996Z,15.03
2022-10-18T01:51:32.976Z,15.02
2022-10-18T01:52:33.137Z,15.02
2022-10-18T01:53:32.983Z,15.02
2022-10-18T01:54:32.936Z,15.01
2022-10-18T01:55:32.937Z,15.02
2022-10-18T01:56:32.906Z,15.01
2022-10-18T01:57:32.908Z,15.01
2022-10-18T01:58:32.896Z,14.98
2022-10-18T01:59:32.897Z,14.99
2022-10-18T02:00:32.876Z,14.99
2022-10-18T02:01:32.881Z,14.99
2022-10-18T02:02:33.864Z,14.99
2022-10-18T02:03:32.849Z,14.99
2022-10-18T02:04:33.242Z,14.99
2022-10-18T02:05:32.816Z,14.98
2022-10-18T02:06:32.798Z,14.99
2022-10-18T02:07:32.786Z,14.98
2022-10-18T02:08:32.769Z,14.99
2022-10-18T02:09:32.789Z,15.01
2022-10-18T02:10:32.760Z,14.98
2022-10-18T02:11:32.739Z,14.99
2022-10-18T02:12:32.965Z,15.01
2022-10-18T02:13:32.748Z,15.01
2022-10-18T02:14:33.320Z,15.01
2022-10-18T02:15:32.744Z,15.01
2022-10-18T02:16:32.693Z,15.02
2022-10-18T02:17:32.698Z,15.02
2022-10-18T02:18:32.647Z,15.02
2022-10-18T02:19:32.661Z,15.02
2022-10-18T02:20:32.655Z,15.03
2022-10-18T02:21:32.647Z,15.03
2022-10-18T02:22:33.689Z,15.03
2022-10-18T02:23:32.619Z,15.06
2022-10-18T02:24:32.642Z,15.06
2022-10-18T02:25:32.584Z,15.07
2022-10-18T02:26:32.557Z,15.07
2022-10-18T02:27:32.569Z,15.09
2022-10-18T02:28:32.528Z,15.09
2022-10-18T02:29:33.446Z,15.09
2022-10-18T02:30:32.527Z,15.09
2022-10-18T02:31:32.542Z,15.09
2022-10-18T02:32:32.907Z,15.07
2022-10-18T02:33:32.496Z,15.07
2022-10-18T02:34:33.029Z,15.07
2022-10-18T02:35:32.518Z,15.07
2022-10-18T02:36:32.446Z,15.06
2022-10-18T02:37:32.449Z,15.03
2022-10-18T02:38:32.432Z,15.03
2022-10-18T02:39:32.427Z,15.02
2022-10-18T02:40:33.167Z,15.03
2022-10-18T02:41:32.406Z,15.01
2022-10-18T02:42:32.782Z,15.02
2022-10-18T02:43:33.095Z,15.01
2022-10-18T02:44:33.278Z,15.02
2022-10-18T02:45:32.363Z,15.02
2022-10-18T02:46:32.470Z,15.02
2022-10-18T02:47:32.441Z,15.03
2022-10-18T02:48:32.399Z,15.02
2022-10-18T02:49:32.341Z,15.01
2022-10-18T02:50:32.290Z,15.01
2022-10-18T02:51:33.121Z,14.99
2022-10-18T02:52:32.255Z,14.96
2022-10-18T02:53:32.428Z,14.95
2022-10-18T02:54:32.242Z,14.95
2022-10-18T02:55:32.265Z,14.95
2022-10-18T02:56:32.218Z,14.92
2022-10-18T02:57:32.619Z,14.92
2022-10-18T02:58:32.245Z,14.91
2022-10-18T02:59:32.198Z,14.92
2022-10-18T03:00:32.195Z,14.91
2022-10-18T03:01:32.225Z,14.89
2022-10-18T03:02:32.176Z,14.91
2022-10-18T03:03:32.970Z,14.91
2022-10-18T03:04:32.167Z,14.89
2022-10-18T03:05:32.137Z,14.91
2022-10-18T03:06:32.109Z,14.89
2022-10-18T03:07:32.458Z,14.89
2022-10-18T03:08:32.069Z,14.91
2022-10-18T03:09:32.079Z,14.91
2022-10-18T03:10:32.228Z,14.89
2022-10-18T03:11:32.052Z,14.89
2022-10-18T03:12:32.127Z,14.89
2022-10-18T03:13:32.481Z,14.89
2022-10-18T03:14:32.020Z,14.89
2022-10-18T03:15:32.010Z,14.91
2022-10-18T03:16:32.020Z,14.89
2022-10-18T03:17:32.159Z,14.91
2022-10-18T03:18:32.093Z,14.91
2022-10-18T03:19:33.746Z,14.91
2022-10-18T03:20:31.948Z,14.91
2022-10-18T03:21:31.963Z,14.92
2022-10-18T03:22:31.980Z,14.92
2022-10-18T03:23:31.954Z,14.91
2022-10-18T03:24:32.740Z,14.92
2022-10-18T03:25:32.651Z,14.94
2022-10-18T03:26:31.881Z,14.95
2022-10-18T03:27:32.167Z,14.96
2022-10-18T03:28:31.917Z,14.95
2022-10-18T03:29:31.832Z,14.95
2022-10-18T03:30:31.872Z,14.95
2022-10-18T03:31:31.817Z,14.95
2022-10-18T03:32:32.097Z,14.96
2022-10-18T03:33:31.789Z,14.95
2022-10-18T03:34:31.811Z,14.96
2022-10-18T03:35:31.759Z,14.96
2022-10-18T03:36:31.770Z,14.96
2022-10-18T03:37:31.738Z,14.98
2022-10-18T03:38:31.752Z,14.96
2022-10-18T03:39:31.730Z,14.95
2022-10-18T03:41:32.129Z,14.95
2022-10-18T03:42:31.994Z,14.92
2022-10-18T03:43:31.677Z,14.94
2022-10-18T03:44:31.697Z,14.94
2022-10-18T03:45:32.524Z,14.94
2022-10-18T03:46:32.425Z,14.94
2022-10-18T03:47:31.630Z,14.94
2022-10-18T03:48:31.780Z,14.94
2022-10-18T03:50:31.612Z,14.94
2022-10-18T03:51:31.591Z,14.94
2022-10-18T03:52:31.891Z,14.94
2022-10-18T03:53:31.568Z,14.94
2022-10-18T03:54:31.710Z,14.95
2022-10-18T03:55:31.545Z,14.95
2022-10-18T03:56:31.559Z,14.95
2022-10-18T03:57:31.517Z,14.95
2022-10-18T03:58:31.564Z,14.96
2022-10-18T03:59:31.579Z,14.96
2022-10-18T04:00:32.501Z,14.95
2022-10-18T04:01:31.548Z,14.95
2022-10-18T04:02:31.855Z,14.95
2022-10-18T04:03:31.450Z,14.95
2022-10-18T04:04:32.256Z,14.94
2022-10-18T04:05:32.127Z,14.92
2022-10-18T04:06:32.351Z,14.94
2022-10-18T04:07:31.453Z,14.94
2022-10-18T04:08:31.402Z,14.95
2022-10-18T04:09:31.427Z,14.92
2022-10-18T04:10:31.412Z,14.89
2022-10-18T04:11:31.380Z,14.89
2022-10-18T04:12:31.665Z,14.89
2022-10-18T04:13:31.340Z,14.88
2022-10-18T04:14:31.338Z,14.88
2022-10-18T04:15:31.309Z,14.86
2022-10-18T04:16:31.338Z,14.88
2022-10-18T04:17:31.673Z,14.88
2022-10-18T04:18:31.281Z,14.86
2022-10-18T04:19:31.260Z,14.86
2022-10-18T04:20:31.277Z,14.86
2022-10-18T04:21:31.247Z,14.88
2022-10-18T04:22:31.800Z,14.88
2022-10-18T04:23:32.798Z,14.89
2022-10-18T04:24:32.430Z,14.89
2022-10-18T04:25:32.077Z,14.89
2022-10-18T04:26:31.928Z,14.89
2022-10-18T04:27:31.477Z,14.91
2022-10-18T04:28:31.380Z,14.91
2022-10-18T04:29:31.166Z,14.92
2022-10-18T04:30:31.141Z,14.91
2022-10-18T04:31:31.241Z,14.91
2022-10-18T04:32:31.136Z,14.91
2022-10-18T04:33:31.100Z,14.89
2022-10-18T04:34:31.192Z,14.91
2022-10-18T04:35:31.087Z,14.89
2022-10-18T04:36:31.284Z,14.91
2022-10-18T04:37:31.395Z,14.91
2022-10-18T04:38:31.300Z,14.89
2022-10-18T04:39:31.048Z,14.89
2022-10-18T04:40:31.046Z,14.88
2022-10-18T04:41:31.093Z,14.88
2022-10-18T04:42:31.032Z,14.84
2022-10-18T04:43:31.015Z,14.83
2022-10-18T04:44:31.231Z,14.83
2022-10-18T04:45:30.989Z,14.83
2022-10-18T04:46:31.002Z,14.83
2022-10-18T04:47:31.923Z,14.81
2022-10-18T04:48:30.943Z,14.81
2022-10-18T04:49:31.800Z,14.81
2022-10-18T04:50:30.933Z,14.81
2022-10-18T04:51:30.892Z,14.83
2022-10-18T04:52:30.958Z,14.81
2022-10-18T04:53:30.864Z,14.80
2022-10-18T04:54:30.896Z,14.80
2022-10-18T04:55:30.862Z,14.78
2022-10-18T04:56:30.852Z,14.80
2022-10-18T04:57:31.126Z,14.80
2022-10-18T04:58:30.851Z,14.80
2022-10-18T04:59:30.883Z,14.81
2022-10-18T05:00:30.814Z,14.80
2022-10-18T05:01:30.830Z,14.78
2022-10-18T05:02:31.257Z,14.81
2022-10-18T05:03:30.752Z,14.80
2022-10-18T05:04:30.852Z,14.80
2022-10-18T05:05:49.798Z,14.80
2022-10-18T05:06:31.742Z,14.80
2022-10-18T05:07:30.801Z,14.78
2022-10-18T05:08:30.710Z,14.77
2022-10-18T05:09:30.682Z,14.77
2022-10-18T05:10:30.692Z,14.78
2022-10-18T05:11:30.811Z,14.78
2022-10-18T05:12:30.928Z,14.77
2022-10-18T05:13:30.661Z,14.77
2022-10-18T05:14:30.671Z,14.77
2022-10-18T05:15:30.611Z,14.75
2022-10-18T05:16:30.722Z,14.75
2022-10-18T05:17:30.602Z,14.75
2022-10-18T05:18:30.594Z,14.75
2022-10-18T05:19:30.582Z,14.73
2022-10-18T05:20:30.590Z,14.72
2022-10-18T05:21:30.579Z,14.72
2022-10-18T05:22:30.793Z,14.72
2022-10-18T05:23:30.571Z,14.69
2022-10-18T05:24:30.531Z,14.70
2022-10-18T05:25:30.517Z,14.69
2022-10-18T05:26:31.272Z,14.69
2022-10-18T05:27:30.495Z,14.69
2022-10-18T05:28:45.898Z,14.69
2022-10-18T05:29:31.549Z,14.68
2022-10-18T05:30:30.451Z,14.68
2022-10-18T05:31:30.461Z,14.65
2022-10-18T05:32:30.760Z,14.68
2022-10-18T05:33:30.454Z,14.65
2022-10-18T05:34:30.445Z,14.64
2022-10-18T05:35:30.412Z,14.64
2022-10-18T05:36:30.405Z,14.62
2022-10-18T05:37:30.413Z,14.64
2022-10-18T05:38:30.412Z,14.62
2022-10-18T05:39:30.362Z,14.64
2022-10-18T05:40:30.372Z,14.64
2022-10-18T05:41:30.334Z,14.64
2022-10-18T05:42:30.675Z,14.64
2022-10-18T05:43:30.322Z,14.65
2022-10-18T05:44:31.108Z,14.62
2022-10-18T05:45:30.413Z,14.64
2022-10-18T05:46:30.422Z,14.61
2022-10-18T05:47:30.332Z,14.61
2022-10-18T05:48:30.268Z,14.61
2022-10-18T05:49:30.255Z,14.61
2022-10-18T05:50:30.234Z,14.60
2022-10-18T05:51:30.211Z,14.60
2022-10-18T05:52:30.562Z,14.58
2022-10-18T05:53:38.233Z,14.58
2022-10-18T05:54:31.198Z,14.58
2022-10-18T05:55:30.176Z,14.60
2022-10-18T05:56:30.248Z,14.58
2022-10-18T05:57:30.560Z,14.57
2022-10-18T05:58:30.142Z,14.57
2022-10-18T05:59:30.144Z,14.55
2022-10-18T06:00:30.127Z,14.55
2022-10-18T06:01:30.083Z,14.55
2022-10-18T06:02:30.174Z,14.55
2022-10-18T06:03:30.091Z,14.55
2022-10-18T06:04:30.073Z,14.57
2022-10-18T06:05:30.109Z,14.55
2022-10-18T06:06:30.061Z,14.55
2022-10-18T06:07:31.349Z,14.57
2022-10-18T06:08:30.829Z,14.55
2022-10-18T06:09:30.728Z,14.55
2022-10-18T06:10:30.008Z,14.57
2022-10-18T06:11:29.997Z,14.57
2022-10-18T06:12:29.990Z,14.55
2022-10-18T06:13:31.242Z,14.54
2022-10-18T06:14:29.953Z,14.55
2022-10-18T06:15:29.937Z,14.54
2022-10-18T06:16:32.558Z,14.54
2022-10-18T06:17:32.510Z,14.51
2022-10-18T06:18:29.955Z,14.51
2022-10-18T06:19:29.901Z,14.51
2022-10-18T06:20:29.916Z,14.52
2022-10-18T06:21:29.856Z,14.50
2022-10-18T06:22:29.930Z,14.51
2022-10-18T06:23:29.850Z,14.52
2022-10-18T06:24:29.843Z,14.52
2022-10-18T06:25:29.822Z,14.52
2022-10-18T06:26:29.863Z,14.54
2022-10-18T06:27:30.046Z,14.52
2022-10-18T06:28:29.901Z,14.54
2022-10-18T06:29:30.611Z,14.57
2022-10-18T06:30:29.774Z,14.57
2022-10-18T06:31:29.784Z,14.57
2022-10-18T06:32:29.874Z,14.58
2022-10-18T06:33:29.773Z,14.58
2022-10-18T06:34:30.634Z,14.58
2022-10-18T06:35:29.724Z,14.57
2022-10-18T06:36:29.711Z,14.55
2022-10-18T06:37:29.988Z,14.55
2022-10-18T06:38:29.688Z,14.57
2022-10-18T06:39:29.673Z,14.55
2022-10-18T06:40:29.748Z,14.57
2022-10-18T06:41:29.654Z,14.55
2022-10-18T06:42:29.814Z,14.55
2022-10-18T06:43:29.606Z,14.54
2022-10-18T06:44:29.952Z,14.57
2022-10-18T06:45:29.623Z,14.58
2022-10-18T06:46:29.595Z,14.57
2022-10-18T06:47:29.575Z,14.58
2022-10-18T06:48:30.354Z,14.58
2022-10-18T06:49:30.477Z,14.60
2022-10-18T06:50:29.986Z,14.61
2022-10-18T06:51:29.523Z,14.60
2022-10-18T06:52:29.798Z,14.61
2022-10-18T06:53:29.506Z,14.62
2022-10-18T06:54:29.497Z,14.62
2022-10-18T06:55:29.487Z,14.62
2022-10-18T06:56:29.544Z,14.62
2022-10-18T06:57:29.490Z,14.65
2022-10-18T06:58:29.469Z,14.65
2022-10-18T06:59:31.298Z,14.64
2022-10-18T07:00:29.437Z,14.65
2022-10-18T07:01:29.445Z,14.65
2022-10-18T07:02:29.680Z,14.64
2022-10-18T07:03:29.423Z,14.68
2022-10-18T07:04:29.470Z,14.68
2022-10-18T07:05:29.403Z,14.68
2022-10-18T07:06:29.365Z,14.68
2022-10-18T07:07:29.543Z,14.68
2022-10-18T07:08:29.364Z,14.68
2022-10-18T07:09:30.228Z,14.69
2022-10-18T07:10:29.327Z,14.72
2022-10-18T07:11:30.178Z,14.73
2022-10-18T07:12:29.295Z,14.75
2022-10-18T07:13:33.404Z,14.75
2022-10-18T07:14:29.384Z,14.78
2022-10-18T07:15:29.299Z,14.78
2022-10-18T07:16:29.266Z,14.80
2022-10-18T07:17:29.387Z,14.83
2022-10-18T07:18:29.228Z,14.83
2022-10-18T07:19:29.312Z,14.84
2022-10-18T07:20:29.229Z,14.86
2022-10-18T07:21:29.184Z,14.86
2022-10-18T07:22:30.409Z,14.86
2022-10-18T07:23:29.214Z,14.86
2022-10-18T07:24:29.305Z,14.86
2022-10-18T07:25:30.595Z,14.86
2022-10-18T07:26:29.157Z,14.86
2022-10-18T07:27:29.306Z,14.86
2022-10-18T07:28:29.152Z,14.88
2022-10-18T07:29:29.136Z,14.88
2022-10-18T07:30:29.095Z,14.86
2022-10-18T07:31:29.107Z,14.86
2022-10-18T07:32:29.085Z,14.84
2022-10-18T07:33:29.091Z,14.86
2022-10-18T07:34:29.143Z,14.88
2022-10-18T07:35:29.065Z,14.89
2022-10-18T07:36:29.035Z,14.89
2022-10-18T07:37:30.214Z,14.89
2022-10-18T07:38:29.087Z,14.92
2022-10-18T07:39:29.777Z,14.95
2022-10-18T07:40:28.972Z,14.98
2022-10-18T07:41:28.967Z,15.02
2022-10-18T07:42:28.977Z,15.03
2022-10-18T07:43:28.935Z,15.09
2022-10-18T07:44:28.934Z,15.10
2022-10-18T07:45:28.999Z,15.11
2022-10-18T07:46:28.906Z,15.14
2022-10-18T07:47:31.299Z,15.17
2022-10-18T07:48:29.896Z,15.19
2022-10-18T07:49:29.834Z,15.20
2022-10-18T07:50:29.751Z,15.23
2022-10-18T07:51:28.873Z,15.27
2022-10-18T07:52:28.825Z,15.29
2022-10-18T07:53:28.841Z,15.31
2022-10-18T07:54:28.841Z,15.32
2022-10-18T07:55:28.806Z,15.31
2022-10-18T07:56:28.814Z,15.35
2022-10-18T07:57:28.876Z,15.36
2022-10-18T07:58:28.787Z,15.39
2022-10-18T07:59:28.785Z,15.44
2022-10-18T08:00:28.775Z,15.47
2022-10-18T08:01:28.810Z,15.51
2022-10-18T08:02:28.736Z,15.56
2022-10-18T08:03:28.745Z,15.60
2022-10-18T08:04:28.746Z,15.65
2022-10-18T08:05:28.756Z,15.71
2022-10-18T08:06:28.675Z,15.75
2022-10-18T08:07:28.854Z,15.84
2022-10-18T08:08:28.708Z,15.90
2022-10-18T08:09:28.686Z,15.96
2022-10-18T08:10:29.363Z,16.01
2022-10-18T08:11:29.534Z,16.08
2022-10-18T08:12:28.622Z,16.12
2022-10-18T08:13:28.617Z,16.17
2022-10-18T08:14:28.624Z,16.20
2022-10-18T08:15:28.610Z,16.25
2022-10-18T08:16:28.628Z,16.27
2022-10-18T08:17:28.723Z,16.31
2022-10-18T08:18:29.334Z,16.34
2022-10-18T08:19:28.553Z,16.42
2022-10-18T08:20:31.629Z,16.49
2022-10-18T08:21:28.656Z,16.57
2022-10-18T08:22:28.527Z,16.66
2022-10-18T08:23:29.385Z,16.73
2022-10-18T08:24:29.286Z,16.79
2022-10-18T08:25:28.622Z,16.83
2022-10-18T08:26:28.536Z,16.91
2022-10-18T08:27:28.494Z,16.97
2022-10-18T08:28:29.265Z,17.01
2022-10-18T08:29:31.690Z,17.03
2022-10-18T08:30:29.229Z,17.07
2022-10-18T08:31:28.474Z,17.08
2022-10-18T08:32:28.438Z,17.11
2022-10-18T08:33:28.398Z,17.15
2022-10-18T08:34:28.503Z,17.19
2022-10-18T08:35:28.385Z,17.21
2022-10-18T08:36:28.366Z,17.25
2022-10-18T08:37:28.407Z,17.28
2022-10-18T08:38:28.394Z,17.33
2022-10-18T08:39:28.345Z,17.36
2022-10-18T08:40:28.337Z,17.38
2022-10-18T08:41:28.325Z,17.43
2022-10-18T08:42:28.419Z,17.46
2022-10-18T08:43:28.358Z,17.49
2022-10-18T08:44:28.288Z,17.51
2022-10-18T08:45:41.937Z,17.54
2022-10-18T08:46:29.299Z,17.56
2022-10-18T08:47:28.275Z,17.56
2022-10-18T08:48:28.248Z,17.56
2022-10-18T08:49:28.242Z,17.56
2022-10-18T08:50:28.266Z,17.58
2022-10-18T08:51:28.409Z,17.58
2022-10-18T08:52:29.253Z,17.56
2022-10-18T08:53:28.280Z,17.56
2022-10-18T08:54:28.177Z,17.56
2022-10-18T08:55:28.235Z,17.54
2022-10-18T08:56:28.172Z,17.54
2022-10-18T08:57:28.150Z,17.51
2022-10-18T08:58:28.107Z,17.51
2022-10-18T08:59:28.452Z,17.48
2022-10-18T09:00:28.112Z,17.43
2022-10-18T09:01:28.137Z,17.40
2022-10-18T09:02:28.123Z,17.38
2022-10-18T09:03:28.134Z,17.38
2022-10-18T09:04:28.071Z,17.38
2022-10-18T09:05:28.037Z,17.37
2022-10-18T09:06:28.008Z,17.38
2022-10-18T09:07:28.103Z,17.40
2022-10-18T09:08:29.085Z,17.41
2022-10-18T09:09:28.007Z,17.41
2022-10-18T09:10:27.968Z,17.44
2022-10-18T09:11:27.987Z,17.49
2022-10-18T09:12:27.991Z,17.54
2022-10-18T09:13:28.679Z,17.62
2022-10-18T09:14:27.981Z,17.71
2022-10-18T09:15:27.929Z,17.79
2022-10-18T09:16:27.908Z,17.89
2022-10-18T09:17:27.951Z,17.97
2022-10-18T09:18:27.914Z,18.07
2022-10-18T09:19:27.918Z,18.18
2022-10-18T09:20:27.929Z,18.27
2022-10-18T09:21:27.881Z,18.33
2022-10-18T09:22:27.862Z,18.41
2022-10-18T09:23:27.840Z,18.45
2022-10-18T09:24:27.872Z,18.48
2022-10-18T09:25:27.819Z,18.50
2022-10-18T09:26:27.832Z,18.52
2022-10-18T09:27:27.809Z,18.54
2022-10-18T09:28:27.802Z,18.60
2022-10-18T09:29:27.773Z,18.65
2022-10-18T09:30:27.895Z,18.69
2022-10-18T09:31:27.771Z,18.75
2022-10-18T09:32:28.647Z,18.78
2022-10-18T09:33:28.579Z,18.80
2022-10-18T09:34:27.958Z,18.84
2022-10-18T09:35:27.711Z,18.82
2022-10-18T09:36:27.818Z,18.80
2022-10-18T09:37:28.426Z,18.85
2022-10-18T09:38:27.782Z,18.91
2022-10-18T09:39:27.701Z,18.99
2022-10-18T09:40:27.684Z,19.04
2022-10-18T09:41:35.201Z,18.80
2022-10-18T09:42:27.643Z,18.67
2022-10-18T09:43:27.623Z,18.66
2022-10-18T09:44:27.635Z,18.67
2022-10-18T09:45:27.603Z,18.67
2022-10-18T09:46:27.574Z,18.66
2022-10-18T09:47:27.600Z,18.66
2022-10-18T09:48:27.554Z,18.72
2022-10-18T09:49:27.571Z,18.72
2022-10-18T09:50:27.562Z,18.70
2022-10-18T09:51:27.862Z,18.75
2022-10-18T09:52:27.514Z,18.81
2022-10-18T09:53:28.463Z,18.87
2022-10-18T09:54:28.324Z,18.92
2022-10-18T09:55:27.485Z,18.95
2022-10-18T09:56:27.469Z,18.98
2022-10-18T09:57:27.511Z,19.04
2022-10-18T09:58:27.443Z,19.08
2022-10-18T09:59:27.438Z,19.13
2022-10-18T10:00:27.413Z,19.14
2022-10-18T10:01:27.432Z,19.18
2022-10-18T10:02:27.418Z,19.19
2022-10-18T10:03:27.421Z,19.19
2022-10-18T10:04:27.397Z,19.21
2022-10-18T10:05:27.446Z,19.18
2022-10-18T10:06:27.352Z,19.16
2022-10-18T10:07:29.809Z,19.18
2022-10-18T10:08:28.342Z,19.16
2022-10-18T10:09:27.334Z,19.16
2022-10-18T10:10:27.575Z,19.13
2022-10-18T10:11:27.308Z,19.14
2022-10-18T10:12:27.517Z,19.16
2022-10-18T10:13:28.104Z,19.16
2022-10-18T10:14:27.517Z,19.16
2022-10-18T10:15:31.260Z,19.16
2022-10-18T10:16:28.237Z,19.21
2022-10-18T10:17:27.526Z,19.22
2022-10-18T10:18:27.205Z,19.25
2022-10-18T10:19:27.208Z,19.25
2022-10-18T10:20:27.214Z,19.28
2022-10-18T10:21:27.192Z,19.29
2022-10-18T10:22:27.176Z,19.31
2022-10-18T10:23:27.207Z,19.32
2022-10-18T10:24:30.323Z,19.36
2022-10-18T10:25:27.375Z,19.32
2022-10-18T10:26:27.377Z,19.36
2022-10-18T10:27:27.145Z,19.36
2022-10-18T10:28:27.150Z,19.40
2022-10-18T10:29:43.517Z,19.43
2022-10-18T10:30:28.075Z,19.46
2022-10-18T10:31:27.076Z,19.51
2022-10-18T10:33:27.161Z,19.48
2022-10-18T10:34:27.045Z,19.54
2022-10-18T10:35:41.475Z,19.59
2022-10-18T10:36:28.007Z,19.63
2022-10-18T10:37:27.019Z,19.68
2022-10-18T10:38:26.990Z,19.69
2022-10-18T10:39:27.022Z,19.73
2022-10-18T10:40:28.703Z,19.74
2022-10-18T10:41:27.043Z,19.77
2022-10-18T10:42:26.937Z,19.78
2022-10-18T10:43:42.254Z,19.78
2022-10-18T10:44:27.957Z,19.76
2022-10-18T10:45:26.952Z,19.66
2022-10-18T10:46:26.898Z,19.65
2022-10-18T10:47:26.905Z,19.68
2022-10-18T10:48:31.036Z,19.73
2022-10-18T10:49:39.620Z,19.77
2022-10-18T10:50:27.893Z,19.78
2022-10-18T10:51:26.859Z,19.78
2022-10-18T10:52:28.056Z,19.83
2022-10-18T10:53:26.838Z,19.83
2022-10-18T10:54:27.698Z,19.88
2022-10-18T10:55:35.723Z,19.87
2022-10-18T10:56:27.800Z,19.94
2022-10-18T10:57:26.800Z,19.95
2022-10-18T10:58:26.768Z,19.95
2022-10-18T10:59:26.782Z,19.99
2022-10-18T11:00:26.745Z,20.01
2022-10-18T11:01:26.788Z,20.03
2022-10-18T11:02:26.728Z,20.05
2022-10-18T11:03:29.588Z,20.08
2022-10-18T11:04:26.700Z,20.13
2022-10-18T11:05:26.777Z,20.13
2022-10-18T11:06:26.678Z,20.18
2022-10-18T11:07:26.688Z,20.18
2022-10-18T11:08:26.671Z,20.18
2022-10-18T11:09:26.659Z,20.18
2022-10-18T11:10:26.639Z,19.94
2022-10-18T11:11:26.648Z,19.87
2022-10-18T11:12:27.003Z,19.87
2022-10-18T11:13:26.636Z,19.84
2022-10-18T11:14:27.422Z,19.80
2022-10-18T11:15:27.474Z,19.63
2022-10-18T11:16:26.569Z,19.46
2022-10-18T11:17:27.537Z,19.44
2022-10-18T11:18:26.569Z,19.46
2022-10-18T11:19:28.418Z,19.48
2022-10-18T11:20:26.529Z,19.48
2022-10-18T11:21:26.530Z,19.51
2022-10-18T11:22:26.523Z,19.54
2022-10-18T11:23:26.514Z,19.47
2022-10-18T11:24:26.480Z,19.43
2022-10-18T11:25:26.479Z,19.37
2022-10-18T11:26:26.478Z,19.36
2022-10-18T11:27:26.459Z,19.32
2022-10-18T11:28:26.472Z,19.28
2022-10-18T11:29:26.451Z,19.25
2022-10-18T11:30:26.408Z,19.26
2022-10-18T11:31:26.428Z,19.28
2022-10-18T11:32:26.404Z,19.33
2022-10-18T11:33:50.074Z,19.41
2022-10-18T11:34:27.432Z,19.43
2022-10-18T11:35:26.409Z,19.43
2022-10-18T11:36:26.343Z,19.48
2022-10-18T11:37:30.287Z,19.62
2022-10-18T11:38:27.357Z,19.73
2022-10-18T11:39:26.366Z,19.74
2022-10-18T11:40:26.323Z,19.74
2022-10-18T11:41:26.282Z,19.76
2022-10-18T11:42:26.322Z,19.80
2022-10-18T11:43:30.311Z,19.78
2022-10-18T11:44:27.282Z,19.78
2022-10-18T11:45:26.327Z,19.73
2022-10-18T11:46:26.244Z,19.74
2022-10-18T11:47:26.221Z,19.73
2022-10-18T11:48:26.260Z,19.68
2022-10-18T11:49:26.211Z,19.66
2022-10-18T11:50:26.276Z,19.65
2022-10-18T11:51:38.700Z,19.50
2022-10-18T11:52:27.182Z,19.39
2022-10-18T11:53:26.153Z,19.25
2022-10-18T11:54:26.167Z,19.29
2022-10-18T11:55:28.964Z,19.32
2022-10-18T11:56:27.873Z,19.33
2022-10-18T11:57:26.126Z,19.40
2022-10-18T11:58:26.125Z,19.41
2022-10-18T11:59:26.111Z,19.41
2022-10-18T12:01:28.453Z,19.40
2022-10-18T12:02:26.121Z,19.48
2022-10-18T12:03:26.047Z,19.55
2022-10-18T12:04:26.053Z,19.59
2022-10-18T12:05:26.020Z,19.56
2022-10-18T12:06:26.025Z,19.69
2022-10-18T12:07:30.269Z,19.84
2022-10-18T12:08:27.012Z,20.08
2022-10-18T12:09:25.984Z,20.23
2022-10-18T12:10:37.884Z,20.28
2022-10-18T12:11:26.964Z,20.23
2022-10-18T12:12:25.963Z,20.23
2022-10-18T12:13:25.939Z,20.17
2022-10-18T12:14:25.984Z,20.16
2022-10-18T12:15:25.924Z,20.16
2022-10-18T12:16:49.605Z,20.20
2022-10-18T12:17:42.090Z,20.20
2022-10-18T12:18:26.905Z,20.18
2022-10-18T12:19:27.025Z,20.11
2022-10-18T12:20:25.906Z,20.21
2022-10-18T12:21:26.023Z,20.26
2022-10-18T12:22:25.883Z,20.28
2022-10-18T12:23:25.874Z,20.28
2022-10-18T12:24:25.832Z,20.26
2022-10-18T12:25:25.814Z,20.21
2022-10-18T12:26:25.816Z,20.01
2022-10-18T12:27:25.796Z,19.91
2022-10-18T12:28:25.820Z,19.86
2022-10-18T12:29:25.754Z,19.81
2022-10-18T12:30:25.792Z,19.84
2022-10-18T12:31:25.773Z,19.96
2022-10-18T12:32:25.737Z,20.03
2022-10-18T12:33:28.585Z,20.13
2022-10-18T12:34:25.736Z,20.18
2022-10-18T12:35:25.749Z,20.21
2022-10-18T12:36:26.606Z,20.21
2022-10-18T12:37:26.519Z,20.10
2022-10-18T12:38:25.698Z,20.02
2022-10-18T12:39:33.447Z,20.03
2022-10-18T12:40:26.657Z,19.99
2022-10-18T12:41:25.642Z,19.95
2022-10-18T12:42:25.635Z,19.99
2022-10-18T12:43:25.607Z,20.08
2022-10-18T12:44:25.613Z,20.13
2022-10-18T12:45:25.609Z,20.17
2022-10-18T12:46:25.642Z,20.18
2022-10-18T12:47:25.557Z,20.23
2022-10-18T12:48:25.557Z,20.31
2022-10-18T12:49:25.598Z,20.33
2022-10-18T12:50:25.554Z,20.24
2022-10-18T12:51:25.656Z,20.20
2022-10-18T12:52:25.528Z,20.26
2022-10-18T12:53:25.507Z,20.31
2022-10-18T12:54:25.680Z,20.38
2022-10-18T12:55:25.549Z,20.48
2022-10-18T12:56:25.540Z,20.54